Stations météo

réclame
Mon MeteoGroup
Utklippan, Suède (2632): Température de l'air & dewpoint: 01.08.2020 18:00:00 - 07.08.2020 18:00:00 (CEST)Utklippan, Suède (2632): Vitesse du vent & gusts: 01.08.2020 18:00:00 - 07.08.2020 18:00:00 (CEST)Utklippan, Suède (2632): Direction du vent: 01.08.2020 18:00:00 - 07.08.2020 18:00:00 (CEST)
Date & Time tt [°C] td [°C] ff [km/h] ff [knt] fx [km/h] fx [knt] dd
07.08.2020 18:00:00 - - - - - - -
07.08.2020 17:00:00 19,1 17,1 15 8 21 12 ENE
07.08.2020 16:00:00 19,2 17,2 15 8 18 10 ENE
07.08.2020 15:00:00 19,6 17,2 13 7 18 10 E
07.08.2020 14:00:00 19,5 17,3 15 8 17 9 E
07.08.2020 13:00:00 18,8 16,8 14 7 16 9 E
07.08.2020 12:00:00 19,1 17,1 14 8 16 9 E
07.08.2020 11:00:00 18,0 16,3 12 6 14 7 ENE
07.08.2020 10:00:00 18,8 16,8 10 6 12 7 E
07.08.2020 09:00:00 18,2 16,5 11 6 16 8 E
07.08.2020 08:00:00 18,0 16,5 13 7 18 10 ESE
07.08.2020 07:00:00 17,9 16,6 16 8 18 10 SE
07.08.2020 06:00:00 16,9 16,3 14 8 17 9 ESE
07.08.2020 05:00:00 17,0 16,0 13 7 17 9 ESE
07.08.2020 04:00:00 17,3 15,8 16 8 19 10 SE
07.08.2020 03:00:00 17,7 15,7 16 9 20 11 SE
07.08.2020 02:00:00 17,7 15,9 17 9 21 11 SE
07.08.2020 01:00:00 17,3 16,0 11 6 12 7 ESE
07.08.2020 00:00:00 17,2 15,7 8 4 11 6 SE
06.08.2020 23:00:00 17,2 15,9 6 4 12 7 ESE
06.08.2020 22:00:00 17,4 15,9 12 6 16 9 SE
06.08.2020 21:00:00 17,6 16,1 13 7 14 8 SE
06.08.2020 20:00:00 18,0 16,2 10 5 13 7 SSE
06.08.2020 19:00:00 19,0 16,2 9 5 13 7 S
06.08.2020 18:00:00 19,7 16,5 11 6 13 7 S
06.08.2020 17:00:00 19,5 16,2 8 5 10 5 S
06.08.2020 16:00:00 20,2 16,6 6 3 10 5 SSE
06.08.2020 15:00:00 20,9 16,7 8 4 15 8 S
06.08.2020 14:00:00 19,4 16,4 10 6 14 7 S
06.08.2020 13:00:00 20,7 16,5 11 6 14 8 S
06.08.2020 12:00:00 20,7 16,7 11 6 18 10 S
06.08.2020 11:00:00 18,9 16,1 14 7 19 11 SSW
06.08.2020 10:00:00 18,4 16,2 16 9 20 11 S
06.08.2020 09:00:00 17,9 15,9 16 9 21 11 S
06.08.2020 08:00:00 18,1 16,1 13 7 17 9 SSW
06.08.2020 07:00:00 17,4 15,2 11 6 16 9 S
06.08.2020 06:00:00 17,4 15,0 11 6 21 11 WSW
06.08.2020 05:00:00 16,5 14,9 15 8 21 12 SSW
06.08.2020 04:00:00 17,0 14,8 17 9 25 13 SSW
06.08.2020 03:00:00 17,0 15,0 21 12 29 15 SSW
06.08.2020 02:00:00 17,3 14,6 23 12 29 16 S
06.08.2020 01:00:00 17,1 14,6 21 12 28 15 S
06.08.2020 00:00:00 17,2 14,5 22 12 29 16 S
05.08.2020 23:00:00 17,5 14,4 22 12 28 15 S
05.08.2020 22:00:00 17,4 14,5 21 11 27 14 S
05.08.2020 21:00:00 17,1 14,7 19 11 24 13 S
05.08.2020 20:00:00 17,4 14,5 17 9 23 12 S
05.08.2020 19:00:00 17,6 14,7 20 11 26 14 S
05.08.2020 18:00:00 17,6 15,4 21 12 25 14 S
05.08.2020 17:00:00 17,8 15,4 19 10 25 13 S
05.08.2020 16:00:00 17,8 15,4 21 11 25 14 S
05.08.2020 15:00:00 18,2 15,3 19 10 23 13 SSW
05.08.2020 14:00:00 20,5 15,5 12 6 16 8 S
05.08.2020 13:00:00 17,7 14,8 13 7 19 10 S
05.08.2020 12:00:00 18,5 14,2 10 5 16 9 SSW
05.08.2020 11:00:00 18,6 13,7 12 7 16 9 SW
05.08.2020 10:00:00 18,3 13,6 13 7 18 10 SW
05.08.2020 09:00:00 17,1 13,4 13 7 17 9 WSW
05.08.2020 08:00:00 16,7 12,8 16 9 21 12 WSW
05.08.2020 07:00:00 16,3 14,0 16 8 19 10 SW
05.08.2020 06:00:00 14,9 13,6 11 6 17 9 SW
05.08.2020 05:00:00 14,8 13,3 15 8 18 10 WSW
05.08.2020 04:00:00 15,0 13,5 14 7 16 9 SW
05.08.2020 03:00:00 14,7 12,7 8 5 10 6 SSW
05.08.2020 02:00:00 14,2 11,9 9 5 13 7 WSW
05.08.2020 01:00:00 14,7 11,8 11 6 20 11 W
05.08.2020 00:00:00 15,4 10,6 16 9 24 13 WNW
04.08.2020 23:00:00 16,0 10,7 20 11 27 15 W
04.08.2020 22:00:00 15,7 11,9 17 9 24 13 WNW
04.08.2020 21:00:00 16,1 11,9 20 11 24 13 W
04.08.2020 20:00:00 17,2 12,1 21 12 32 17 W
04.08.2020 19:00:00 18,2 12,4 24 13 29 16 W
04.08.2020 18:00:00 18,9 11,9 24 13 32 17 W
04.08.2020 17:00:00 19,6 12,4 23 12 31 17 W
04.08.2020 16:00:00 19,8 13,0 23 13 30 16 WSW
04.08.2020 15:00:00 19,7 13,2 22 12 29 16 WSW
04.08.2020 14:00:00 19,8 12,8 22 12 29 16 WSW
04.08.2020 13:00:00 18,9 12,6 24 13 29 16 W
04.08.2020 12:00:00 18,2 12,9 23 13 30 16 W
04.08.2020 11:00:00 16,6 12,6 24 13 29 16 W
04.08.2020 10:00:00 16,0 12,6 20 11 23 13 W
04.08.2020 09:00:00 15,2 12,0 19 10 24 13 WNW
04.08.2020 08:00:00 15,1 12,4 16 9 24 13 WNW
04.08.2020 07:00:00 14,3 11,8 19 11 23 13 NW
04.08.2020 06:00:00 13,6 12,0 17 9 21 12 NW
04.08.2020 05:00:00 13,8 12,0 16 8 27 15 NW
04.08.2020 04:00:00 14,1 12,1 21 11 27 15 NNW
04.08.2020 03:00:00 14,3 12,0 26 14 32 17 NW
04.08.2020 02:00:00 14,8 12,3 23 12 27 15 NW
04.08.2020 01:00:00 15,0 12,5 19 10 22 12 NW
04.08.2020 00:00:00 15,5 12,6 20 11 27 15 NW
03.08.2020 23:00:00 15,8 12,9 18 10 21 11 WNW
03.08.2020 22:00:00 16,2 12,9 19 11 26 14 WNW
03.08.2020 21:00:00 16,5 12,8 21 12 24 13 W
03.08.2020 20:00:00 16,9 14,2 19 10 23 12 WSW
03.08.2020 19:00:00 18,2 14,3 16 9 29 15 WSW
03.08.2020 18:00:00 18,1 14,2 23 13 29 16 WSW
03.08.2020 17:00:00 18,5 13,8 21 11 26 14 WSW
03.08.2020 16:00:00 19,1 13,7 18 10 21 12 SW
03.08.2020 15:00:00 19,4 14,2 16 9 21 11 SW
03.08.2020 14:00:00 19,3 14,1 16 9 20 11 WSW
03.08.2020 13:00:00 19,5 13,9 11 6 19 10 W
03.08.2020 12:00:00 18,3 14,6 16 8 21 11 W
03.08.2020 11:00:00 16,7 14,9 13 7 15 8 W
03.08.2020 10:00:00 16,9 15,1 13 7 15 8 WNW
03.08.2020 09:00:00 15,7 14,7 14 8 17 9 WNW
03.08.2020 08:00:00 16,2 16,0 7 4 11 6 SSW
03.08.2020 07:00:00 15,8 15,5 9 5 11 6 SW
03.08.2020 06:00:00 15,4 15,2 6 3 8 4 S
03.08.2020 05:00:00 14,8 14,5 8 4 10 5 SW
03.08.2020 04:00:00 14,4 14,1 8 5 11 6 WSW
03.08.2020 03:00:00 14,3 13,8 10 5 11 6 W
03.08.2020 02:00:00 14,6 14,0 9 5 15 8 W
03.08.2020 01:00:00 15,4 14,3 13 7 19 10 W
03.08.2020 00:00:00 15,5 14,4 16 9 19 11 W
02.08.2020 23:00:00 15,6 14,3 14 8 19 10 W
02.08.2020 22:00:00 16,0 14,4 16 9 21 12 W
02.08.2020 21:00:00 15,9 14,9 18 10 23 12 W
02.08.2020 20:00:00 16,4 15,6 18 10 27 15 SW
02.08.2020 19:00:00 16,9 15,9 23 12 29 16 SW
02.08.2020 18:00:00 16,9 16,1 22 12 29 16 SW
02.08.2020 17:00:00 17,1 16,3 23 12 36 19 SW
02.08.2020 16:00:00 17,4 15,9 25 14 29 16 SW
02.08.2020 15:00:00 17,8 16,7 16 8 23 12 SSW
02.08.2020 14:00:00 18,0 16,2 18 10 30 16 SW
02.08.2020 13:00:00 19,4 16,2 10 5 24 13 SW
02.08.2020 12:00:00 17,2 15,7 17 9 22 12 SW
02.08.2020 11:00:00 17,0 15,5 16 9 25 14 S
02.08.2020 10:00:00 16,8 15,1 17 9 22 12 S
02.08.2020 09:00:00 16,5 15,0 18 10 23 13 SSE
02.08.2020 08:00:00 16,6 14,8 21 11 27 15 SSE
02.08.2020 07:00:00 16,1 14,6 23 12 27 15 SSE
02.08.2020 06:00:00 15,9 14,6 23 12 26 14 SSE
02.08.2020 05:00:00 15,5 14,9 20 11 23 12 SSE
02.08.2020 04:00:00 15,7 15,4 19 10 22 12 SE
02.08.2020 03:00:00 15,6 15,4 15 8 17 9 SE
02.08.2020 02:00:00 15,4 15,4 13 7 16 9 SE
02.08.2020 01:00:00 15,5 15,5 11 6 14 8 SE
02.08.2020 00:00:00 15,6 15,6 10 5 15 8 SE
01.08.2020 23:00:00 15,7 15,7 11 6 15 8 SE
01.08.2020 22:00:00 15,7 15,4 9 5 11 6 ESE
01.08.2020 21:00:00 16,0 15,4 6 4 9 5 SE
01.08.2020 20:00:00 16,3 15,5 7 4 8 5 ESE
01.08.2020 19:00:00 17,2 15,4 7 4 12 7 SSE
01.08.2020 18:00:00 17,9 15,3 10 6 11 6 SE

tt = Température de l'air
td = dewpoint
ff = Vitesse du vent
fx = gusts
dd = Direction du vent

stations d'obs. à proximité